Flight Track Log - Related Links

Times and Time Zones

All times are in EDT time to prevent confusion due to time zone crossing. See the DAL9933 flight status page for this flight to view local times or setup timezone preferences in your user account.


Time Position Orientation Groundspeed Altitude Reporting Facility
EDT Latitude Longitude Course Direction KTS MPH feet Rate Location/Type
Tue 07:15:48 AM 33.6456 -84.3806 North 442 509 2,400  Level Atlanta Center
Tue 07:16:19 AM 33.6500 -84.3333 84° East 244 281 3,800 2,969 Climbing Atlanta TRACON
Tue 07:17:25 AM 33.6667 -84.2333 79° East 290 334 7,200 3,000 Climbing Atlanta TRACON
Tue 07:18:25 AM 33.7333 -84.1833 32° Northeast 307 353 10,100 1,537 Climbing Atlanta TRACON
Tue 07:20:48 AM 33.9506 -84.2767 340° North 354 407 12,400 1,419 Climbing Atlanta Center
Tue 07:21:00 AM 34.1596 -84.2667 North  Level FlightAware Approximate
Tue 07:21:48 AM 34.0403 -84.2794 359° North 354 407 14,900  Level Atlanta Center
Tue 07:22:48 AM 34.1697 -84.2797 360° North 389 448 18,200 2,750 Climbing Atlanta Center
Tue 07:23:48 AM 34.2886 -84.2803 360° North 415 478 20,400 2,100 Climbing Atlanta Center
Tue 07:24:48 AM 34.4078 -84.2528 11° North 426 490 22,400 2,067 Climbing Atlanta Center
Tue 07:26:48 AM 34.6500 -84.1953 11° North 451 519 26,600 2,067 Climbing Atlanta Center
Tue 07:27:48 AM 34.7833 -84.1653 10° North 446 513 28,600 1,950 Climbing Atlanta Center
Tue 07:28:48 AM 34.9108 -84.1350 11° North 451 519 30,500 1,850 Climbing Atlanta Center
Tue 07:29:48 AM 35.0319 -84.1047 12° North 451 519 32,300 1,500 Climbing Atlanta Center
Tue 07:30:48 AM 35.1569 -84.0769 10° North 451 519 33,500 1,150 Climbing Atlanta Center
Tue 07:31:48 AM 35.2803 -84.0464 11° North 451 519 34,600 750 Climbing Atlanta Center
Tue 07:32:48 AM 35.4033 -84.0158 11° North 451 519 35,000 200 Climbing Atlanta Center
Tue 07:33:48 AM 35.5264 -83.9853 11° North 451 519 35,000  Level Atlanta Center
Tue 07:34:48 AM 35.6514 -83.9569 10° North 451 519 35,000  Level Atlanta Center
Tue 07:35:48 AM 35.7767 -83.9261 11° North 451 519 35,000  Level Atlanta Center
Tue 07:36:48 AM 35.8997 -83.8953 11° North 451 519 35,000  Level Atlanta Center
Tue 07:37:48 AM 36.0228 -83.8744 North 446 513 35,000 150 Level Atlanta Center
Tue 07:38:48 AM 36.1458 -83.8536 North 446 513 35,300 429 Climbing Atlanta Center
Tue 07:39:12 AM 36.1939 -83.8439 North 449 517 35,600 494 Climbing Indianapolis Center
Tue 07:40:13 AM 36.3139 -83.8217 North 441 507 36,000 195 Climbing Indianapolis Center
Tue 07:41:15 AM 36.4356 -83.8011 North 441 507 36,000  Level Indianapolis Center
Tue 07:42:16 AM 36.5689 -83.7797 North 449 517 36,000 -98 Level Indianapolis Center
Tue 07:43:18 AM 36.6914 -83.7606 North 443 510 35,800 -581 Descending Indianapolis Center
Tue 07:44:20 AM 36.8133 -83.7406 North 439 505 34,800 -1,171 Descending Indianapolis Center
Tue 07:45:21 AM 36.9372 -83.7194 North 444 511 33,400 -1,366 Descending Indianapolis Center
Tue 07:46:23 AM 37.0589 -83.6978 North 440 506 32,000 -1,415 Descending Indianapolis Center
Tue 07:47:24 AM 37.1817 -83.6772 North 439 505 30,500 -1,659 Descending Indianapolis Center
Tue 07:48:26 AM 37.3042 -83.6539 North 443 510 28,600 -2,049 Descending Indianapolis Center
Tue 07:49:27 AM 37.4497 -83.6286 North 449 517 26,300 -2,146 Descending Indianapolis Center
Tue 07:50:29 AM 37.5764 -83.6056 North 453 521 24,200 -1,839 Descending Indianapolis Center
Tue 07:51:31 AM 37.6994 -83.6325 350° North 458 527 22,500 -1,073 Descending Indianapolis Center
Tue 07:52:32 AM 37.8003 -83.7033 331° Northwest 422 486 22,000 -244 Descending Indianapolis Center
Tue 07:53:34 AM 37.8997 -83.7697 332° Northwest 406 467 22,000 -242 Level Indianapolis Center
Tue 07:54:36 AM 37.9986 -83.8378 332° Northwest 404 465 21,500 -1,561 Descending Indianapolis Center
Tue 07:55:37 AM 38.0942 -83.9064 331° Northwest 395 455 18,800 -2,683 Descending Indianapolis Center
Tue 07:56:39 AM 38.2014 -83.9825 331° Northwest 380 437 16,000 -2,565 Descending Indianapolis Center
Tue 07:57:41 AM 38.2908 -84.0453 331° Northwest 367 422 13,500 -2,098 Descending Indianapolis Center
Tue 07:58:42 AM 38.3758 -84.1069 330° Northwest 352 405 11,700 -1,220 Descending Indianapolis Center
Tue 07:59:44 AM 38.4581 -84.1728 328° Northwest 349 402 11,000 -339 Descending Indianapolis Center
Tue 08:00:46 AM 38.5411 -84.2347 330° Northwest 346 398 11,000  Level Indianapolis Center
Tue 08:01:47 AM 38.6206 -84.3025 326° Northwest 343 395 11,000  Level Indianapolis Center
Tue 08:02:49 AM 38.7008 -84.3683 327° Northwest 343 395 11,000 -48 Level Indianapolis Center
Tue 08:03:51 AM 38.7819 -84.4353 327° Northwest 344 396 10,900 -341 Descending Indianapolis Center
Tue 08:04:52 AM 38.8686 -84.5081 327° Northwest 327 376 10,300 -780 Descending Indianapolis Center
Tue 08:05:54 AM 38.9461 -84.5297 348° North 282 325 9,300 -1,258 Descending Indianapolis Center
Tue 08:06:56 AM 39.0197 -84.5419 353° North 266 306 7,700 -1,610 Descending Indianapolis Center
Tue 08:07:57 AM 39.0964 -84.5536 353° North 272 313 6,000 -1,610 Descending Indianapolis Center
Tue 08:08:59 AM 39.1664 -84.5747 347° North 261 300 4,400 -1,210 Descending Indianapolis Center
Tue 08:10:01 AM 39.1644 -84.6458 268° West 240 276 3,500 -1,306 Descending Indianapolis Center
Tue 08:11:03 AM 39.1000 -84.6667 194° South 170 196 1,700 -1,742 Descending Cincinnati TRACON
Tue 08:14:00 AM 39.0488 -84.6678 180° South  Level Estimated

Login

Don't have an account? Register now (free) for customized features, flight alerts, and more!